createdAt,value
2022-09-16T10:07:23.327Z,708.75
2022-09-16T10:08:17.902Z,675.00
2022-09-16T10:09:22.147Z,630.00
2022-09-16T10:10:20.155Z,810.00
2022-09-16T10:11:19.026Z,511.88
2022-09-16T10:12:18.246Z,691.88
2022-09-16T10:13:18.163Z,523.13
2022-09-16T10:14:18.218Z,607.50
2022-09-16T10:15:18.269Z,708.75
2022-09-16T10:16:18.388Z,720.00
2022-09-16T10:17:26.336Z,787.50
2022-09-16T10:18:25.320Z,877.50
2022-09-16T10:19:18.479Z,618.75
2022-09-16T10:20:18.575Z,523.13
2022-09-16T10:21:18.593Z,855.00
2022-09-16T10:22:18.669Z,523.13
2022-09-16T10:23:18.705Z,607.50
2022-09-16T10:24:18.834Z,669.38
2022-09-16T10:25:25.266Z,736.88
2022-09-16T10:26:24.359Z,916.88
2022-09-16T10:27:19.336Z,995.63
2022-09-16T10:30:12.739Z,641.25
2022-09-16T10:31:12.884Z,720.00
2022-09-16T10:32:13.328Z,669.38
2022-09-16T10:33:12.882Z,736.88
2022-09-16T10:34:19.801Z,990.00
2022-09-16T10:35:12.969Z,658.13
2022-09-16T10:36:19.815Z,787.50
2022-09-16T10:37:13.101Z,720.00
2022-09-16T10:38:14.861Z,523.13
2022-09-16T10:39:13.197Z,579.38
2022-09-16T10:40:13.263Z,658.13
2022-09-16T10:41:13.318Z,450.00
2022-09-16T10:42:13.370Z,472.50
2022-09-16T10:43:13.394Z,410.63
2022-09-16T10:44:17.190Z,388.13
2022-09-16T10:45:13.526Z,343.13
2022-09-16T10:46:13.606Z,275.63
2022-09-16T10:47:13.612Z,213.75
2022-09-16T10:48:13.671Z,168.75
2022-09-16T10:49:13.742Z,140.63
2022-09-16T10:50:13.823Z,135.00
2022-09-16T10:51:25.137Z,140.63
2022-09-16T10:52:13.931Z,135.00
2022-09-16T10:53:13.940Z,118.13
2022-09-16T10:54:13.992Z,95.63
2022-09-16T10:55:18.819Z,90.00
2022-09-16T10:56:14.129Z,90.00
2022-09-16T10:57:14.183Z,90.00
2022-09-16T10:58:14.204Z,84.38
2022-09-16T10:59:14.253Z,84.38
2022-09-16T11:00:27.610Z,73.13
2022-09-16T11:01:36.991Z,73.13
2022-09-16T11:02:14.750Z,73.13
2022-09-16T11:03:14.509Z,73.13
2022-09-16T11:04:35.550Z,73.13
2022-09-16T11:05:14.646Z,73.13
2022-09-16T11:06:14.687Z,73.13
2022-09-16T11:14:14.572Z,84.38
2022-09-16T11:15:14.610Z,95.63
2022-09-16T11:20:53.754Z,264.38
2022-09-16T11:21:42.221Z,286.88
2022-09-16T11:22:40.317Z,309.38
2022-09-16T11:23:40.361Z,360.00
2022-09-16T11:24:40.412Z,450.00
2022-09-16T11:25:40.469Z,573.75
2022-09-16T11:26:40.758Z,585.00
2022-09-16T11:27:40.561Z,950.63
2022-09-16T11:28:40.688Z,658.13
2022-09-16T11:29:40.685Z,579.38
2022-09-16T11:30:40.712Z,635.63
2022-09-16T11:31:41.427Z,1479.38
2022-09-16T11:32:42.842Z,1417.50
2022-09-16T11:33:41.718Z,1445.63
2022-09-16T11:34:40.931Z,506.25
2022-09-16T11:35:45.751Z,579.38
2022-09-16T11:36:41.015Z,1051.88
2022-09-16T11:37:41.146Z,438.75
2022-09-16T11:39:02.269Z,405.00
2022-09-16T11:39:41.466Z,416.25
2022-09-16T11:40:41.394Z,405.00
2022-09-16T11:42:04.245Z,354.38
2022-09-16T11:42:41.369Z,275.63
2022-09-16T11:43:52.321Z,230.63
2022-09-16T11:44:41.444Z,230.63
2022-09-16T11:45:41.584Z,185.63
2022-09-16T11:46:41.643Z,174.38
2022-09-16T11:47:41.627Z,185.63
2022-09-16T11:48:41.643Z,191.25
2022-09-16T11:49:41.732Z,191.25
2022-09-16T11:50:41.783Z,163.13
2022-09-16T11:51:41.805Z,146.25
2022-09-16T11:52:41.889Z,168.75
2022-09-16T11:53:43.900Z,151.88
2022-09-16T11:54:45.394Z,135.00
2022-09-16T11:55:42.010Z,140.63
2022-09-16T11:56:42.060Z,151.88
2022-09-16T11:57:48.756Z,157.50
2022-09-16T11:58:42.902Z,140.63
2022-09-16T11:59:52.848Z,118.13
2022-09-16T12:00:42.295Z,78.75
2022-09-16T12:01:42.396Z,50.63
2022-09-16T12:03:03.473Z,56.25
2022-09-16T12:03:42.419Z,67.50
2022-09-16T12:04:42.468Z,78.75
2022-09-16T12:05:42.556Z,90.00
2022-09-16T12:06:42.570Z,106.88
2022-09-16T12:07:42.626Z,112.50
2022-09-16T12:08:42.670Z,106.88
2022-09-16T12:09:42.726Z,112.50
2022-09-16T12:10:42.884Z,123.75
2022-09-16T12:11:42.874Z,106.88
2022-09-16T12:12:42.981Z,112.50
2022-09-16T12:13:43.466Z,151.88
2022-09-16T12:14:42.974Z,135.00
2022-09-16T12:15:43.042Z,157.50
2022-09-16T12:16:43.085Z,135.00
2022-09-16T12:17:43.148Z,90.00
2022-09-16T12:21:33.889Z,157.50
2022-09-16T12:22:33.913Z,241.88
2022-09-16T12:23:33.957Z,286.88
2022-09-16T12:24:34.010Z,219.38
2022-09-16T12:25:34.090Z,140.63
2022-09-16T12:26:34.111Z,118.13
2022-09-16T15:00:57.621Z,28.13
2022-09-16T15:01:57.712Z,28.13
2022-09-16T15:02:57.717Z,33.75
2022-09-16T15:03:57.733Z,39.38
2022-09-16T15:04:57.803Z,45.00
2022-09-16T15:05:57.835Z,56.25
2022-09-16T15:07:01.811Z,56.25
2022-09-16T15:08:13.285Z,56.25
2022-09-16T15:08:58.035Z,61.88
2022-09-16T15:09:58.043Z,73.13
2022-09-16T15:10:58.072Z,73.13
2022-09-16T15:11:58.115Z,67.50
2022-09-16T15:12:58.162Z,56.25
2022-09-16T15:13:58.217Z,56.25
2022-09-16T15:14:58.281Z,50.63
2022-09-16T15:15:58.363Z,50.63
2022-09-16T15:16:58.358Z,45.00
2022-09-16T15:18:13.199Z,39.38
2022-09-16T15:19:20.366Z,50.63
2022-09-16T15:33:57.743Z,78.75
2022-09-16T15:34:57.844Z,73.13
2022-09-16T15:35:58.451Z,67.50
2022-09-16T15:36:58.666Z,61.88
2022-09-16T16:02:51.784Z,22.50
2022-09-16T16:03:51.757Z,16.88
2022-09-16T16:04:51.775Z,16.88
2022-09-16T16:05:51.822Z,11.25
2022-09-16T16:06:51.876Z,11.25
2022-09-16T16:07:51.915Z,11.25
2022-09-16T16:08:51.996Z,11.25
2022-09-16T16:09:52.012Z,11.25
2022-09-16T16:10:52.079Z,11.25
2022-09-16T16:11:52.102Z,16.88
2022-09-16T16:12:52.149Z,16.88
2022-09-16T16:13:52.263Z,16.88
2022-09-16T16:14:52.252Z,16.88
2022-09-16T16:15:52.368Z,16.88
2022-09-16T16:17:11.807Z,16.88
2022-09-16T16:17:52.391Z,16.88
2022-09-16T16:18:52.452Z,16.88
2022-09-16T16:19:52.488Z,11.25
2022-09-16T16:20:52.560Z,11.25
2022-09-16T16:21:52.586Z,11.25
2022-09-16T16:22:52.896Z,11.25
2022-09-16T16:23:52.706Z,11.25
2022-09-16T16:24:52.732Z,11.25
2022-09-16T16:25:52.777Z,11.25
2022-09-16T16:26:56.723Z,5.63
2022-09-16T16:27:52.877Z,5.63
2022-09-16T16:28:52.962Z,5.63
2022-09-16T16:30:02.172Z,5.63
2022-09-16T16:30:53.046Z,0.00
2022-09-16T16:31:53.071Z,0.00
2022-09-16T16:32:53.117Z,0.00
2022-09-16T16:33:53.198Z,0.00
2022-09-16T16:34:53.238Z,0.00
2022-09-16T16:35:53.264Z,0.00
2022-09-16T16:36:53.315Z,0.00
2022-09-16T16:37:53.387Z,0.00
2022-09-16T16:38:53.406Z,0.00
2022-09-16T16:39:53.506Z,0.00
2022-09-16T16:40:53.506Z,0.00
2022-09-16T16:41:53.557Z,5.63
2022-09-16T16:42:53.680Z,5.63
2022-09-16T16:43:53.650Z,5.63
2022-09-16T16:44:53.709Z,5.63
2022-09-16T16:45:53.789Z,5.63
2022-09-16T16:46:53.801Z,5.63
2022-09-16T16:47:53.879Z,5.63
2022-09-16T16:51:31.733Z,0.00
2022-09-16T16:52:31.759Z,0.00
2022-09-16T16:53:31.823Z,0.00
2022-09-16T16:54:31.864Z,0.00
2022-09-16T16:55:31.939Z,0.00
2022-09-16T16:56:31.963Z,0.00
2022-09-16T16:57:32.006Z,0.00
2022-09-16T16:58:32.050Z,0.00
2022-09-16T16:59:32.099Z,5.63
2022-09-16T17:00:32.180Z,5.63
2022-09-16T17:01:32.247Z,0.00
2022-09-16T17:02:32.311Z,0.00
2022-09-16T17:03:32.291Z,0.00
2022-09-16T17:04:32.345Z,0.00
2022-09-16T17:05:32.420Z,0.00
2022-09-16T17:06:32.441Z,5.63
2022-09-16T17:07:32.582Z,5.63
2022-09-16T17:08:32.546Z,11.25
2022-09-16T17:09:32.610Z,11.25
2022-09-16T17:10:32.634Z,16.88
2022-09-16T17:11:35.200Z,16.88
2022-09-16T17:12:32.759Z,11.25
2022-09-16T17:13:32.774Z,11.25
2022-09-16T17:14:32.829Z,5.63
2022-09-16T17:15:32.924Z,0.00
2022-09-16T17:16:32.927Z,0.00
2022-09-16T17:17:33.233Z,0.00
2022-09-16T17:18:33.025Z,0.00
2022-09-16T17:19:33.074Z,0.00
2022-09-16T17:20:33.123Z,0.00
2022-09-16T17:21:33.165Z,0.00
2022-09-16T17:22:41.203Z,0.00
2022-09-16T17:23:33.266Z,0.00
2022-09-16T17:24:33.317Z,0.00
2022-09-16T17:25:33.361Z,0.00
2022-09-16T17:26:33.415Z,0.00
2022-09-16T17:27:33.489Z,0.00
2022-09-16T17:28:33.510Z,0.00
2022-09-16T17:29:33.593Z,0.00
2022-09-16T17:30:33.635Z,0.00
2022-09-16T17:31:33.652Z,0.00
2022-09-16T17:32:54.756Z,0.00
2022-09-16T17:33:57.952Z,0.00
2022-09-16T17:34:33.844Z,0.00
2022-09-16T17:35:33.851Z,0.00
2022-09-16T17:36:34.709Z,0.00
2022-09-16T17:37:33.950Z,0.00
2022-09-16T17:38:39.395Z,0.00
2022-09-16T17:39:34.069Z,0.00
2022-09-16T17:40:34.147Z,0.00
2022-09-16T17:41:34.153Z,0.00
2022-09-16T17:42:34.224Z,0.00
2022-09-16T17:43:34.237Z,0.00
2022-09-16T17:44:42.897Z,0.00
2022-09-16T17:45:34.339Z,0.00
2022-09-16T17:46:36.439Z,0.00
2022-09-16T17:47:34.479Z,0.00
2022-09-16T17:48:34.520Z,0.00
2022-09-16T17:50:02.221Z,0.00
2022-09-16T17:54:42.355Z,0.00
2022-09-16T17:55:30.752Z,0.00
2022-09-16T17:56:33.347Z,0.00
2022-09-16T17:57:33.200Z,0.00
2022-09-16T17:58:30.893Z,0.00
2022-09-16T17:59:30.935Z,0.00
2022-09-16T18:00:31.013Z,0.00
2022-09-16T18:01:31.043Z,0.00
2022-09-16T18:02:31.147Z,0.00
2022-09-16T18:03:31.132Z,0.00
2022-09-16T18:04:31.263Z,0.00
2022-09-16T18:05:31.300Z,0.00
2022-09-16T18:06:31.293Z,0.00
2022-09-16T18:07:31.346Z,0.00
2022-09-16T18:08:52.407Z,0.00
2022-09-16T18:09:31.427Z,0.00
2022-09-16T18:10:31.498Z,0.00
2022-09-16T18:11:31.560Z,0.00
2022-09-16T18:12:31.569Z,0.00
2022-09-16T18:13:31.621Z,0.00
2022-09-16T18:14:31.666Z,0.00
2022-09-16T18:15:31.718Z,0.00
2022-09-16T18:16:31.871Z,0.00
2022-09-16T18:17:31.813Z,0.00
2022-09-16T18:18:31.861Z,0.00
2022-09-16T18:19:31.909Z,0.00
2022-09-16T18:20:31.958Z,0.00
2022-09-16T18:21:32.030Z,0.00
2022-09-16T18:22:32.054Z,0.00
2022-09-16T18:23:32.132Z,0.00
2022-09-16T18:24:32.150Z,0.00
2022-09-16T18:25:32.202Z,0.00
2022-09-16T18:26:32.251Z,0.00
2022-09-16T18:27:32.322Z,0.00
2022-09-16T18:28:42.129Z,0.00
2022-09-16T18:29:32.424Z,0.00
2022-09-16T18:30:32.462Z,0.00
2022-09-16T18:31:32.493Z,0.00
2022-09-16T18:32:32.567Z,0.00
2022-09-16T18:33:32.593Z,0.00
2022-09-16T18:34:33.621Z,0.00
2022-09-16T18:35:32.690Z,0.00
2022-09-16T18:36:32.785Z,0.00
2022-09-16T18:37:32.807Z,0.00
2022-09-16T18:38:32.848Z,0.00
2022-09-16T18:39:32.889Z,0.00
2022-09-16T18:40:37.467Z,0.00
2022-09-16T18:41:32.982Z,0.00
2022-09-16T18:42:33.055Z,0.00
2022-09-16T18:43:33.082Z,0.00
2022-09-16T18:44:33.130Z,0.00
2022-09-16T18:45:33.174Z,0.00
2022-09-16T18:46:33.295Z,0.00
2022-09-16T18:47:33.310Z,0.00
2022-09-16T18:48:33.323Z,0.00
2022-09-16T18:49:33.369Z,0.00
2022-09-16T18:50:33.433Z,0.00
2022-09-16T18:51:33.500Z,0.00
2022-09-16T18:52:33.543Z,0.00
2022-09-16T18:53:33.562Z,0.00
2022-09-16T18:54:33.611Z,0.00
2022-09-16T18:55:33.659Z,0.00
2022-09-16T18:56:33.705Z,0.00
2022-09-16T18:57:33.793Z,0.00
2022-09-16T18:58:33.838Z,0.00
2022-09-16T18:59:33.855Z,0.00
2022-09-16T19:00:33.905Z,0.00
2022-09-16T19:01:34.098Z,0.00
2022-09-16T19:02:34.059Z,0.00
2022-09-16T19:03:34.073Z,0.00
2022-09-16T19:04:34.094Z,0.00
2022-09-16T19:05:34.146Z,0.00
2022-09-16T19:06:34.193Z,0.00
2022-09-16T19:07:34.245Z,0.00
2022-09-16T19:08:34.319Z,0.00
2022-09-16T19:09:34.361Z,0.00
2022-09-16T19:10:34.391Z,0.00
2022-09-16T19:11:34.457Z,0.00
2022-09-16T19:12:38.965Z,0.00
2022-09-16T19:13:34.537Z,0.00
2022-09-16T19:14:34.587Z,0.00
2022-09-16T19:15:34.665Z,0.00
2022-09-16T19:16:34.682Z,0.00
2022-09-16T19:17:34.812Z,0.00
2022-09-16T19:18:34.786Z,0.00
2022-09-16T19:19:34.823Z,0.00
2022-09-16T19:20:34.908Z,0.00
2022-09-16T19:21:49.686Z,0.00
2022-09-16T19:22:34.970Z,0.00
2022-09-16T19:23:35.025Z,0.00
2022-09-16T19:24:38.880Z,0.00
2022-09-16T19:25:37.908Z,0.00
2022-09-16T19:26:46.395Z,0.00
2022-09-16T19:30:36.403Z,0.00
2022-09-16T19:32:35.505Z,0.00
2022-09-16T19:33:38.197Z,0.00
2022-09-16T19:34:40.374Z,0.00
2022-09-16T19:37:37.877Z,0.00
2022-09-16T19:38:43.372Z,0.00
2022-09-16T19:40:46.921Z,0.00
2022-09-16T19:51:22.026Z,0.00
2022-09-16T19:53:26.551Z,0.00
2022-09-16T19:54:27.052Z,0.00
2022-09-16T19:56:24.111Z,0.00
2022-09-16T19:57:25.545Z,0.00
2022-09-16T19:58:38.557Z,0.00
2022-09-16T20:02:07.557Z,0.00
2022-09-16T20:03:00.649Z,0.00
2022-09-16T20:03:24.088Z,0.00
2022-09-16T20:04:24.062Z,0.00
2022-09-16T20:05:25.587Z,0.00
2022-09-16T20:06:50.388Z,0.00
2022-09-16T20:07:27.557Z,0.00
2022-09-16T20:08:29.560Z,0.00
2022-09-16T20:10:32.052Z,0.00
2022-09-16T20:11:28.060Z,0.00
2022-09-16T20:12:30.554Z,0.00
2022-09-16T20:13:23.616Z,0.00
2022-09-16T20:15:23.164Z,0.00
2022-09-16T20:16:23.328Z,0.00
2022-09-16T20:17:23.339Z,0.00
2022-09-16T20:20:14.447Z,0.00
2022-09-16T20:21:14.576Z,0.00
2022-09-16T20:22:14.521Z,0.00
2022-09-16T20:23:14.592Z,0.00
2022-09-16T20:24:14.620Z,0.00
2022-09-16T20:25:22.967Z,0.00
2022-09-16T20:26:14.708Z,0.00
2022-09-16T20:27:14.767Z,0.00
2022-09-16T20:28:14.935Z,0.00
2022-09-16T20:29:14.855Z,0.00
2022-09-16T20:30:14.900Z,0.00
2022-09-16T20:31:14.990Z,0.00
2022-09-16T20:32:15.019Z,0.00
2022-09-16T20:33:15.047Z,0.00
2022-09-16T20:34:15.093Z,0.00
2022-09-16T20:35:15.144Z,0.00
2022-09-16T20:36:15.192Z,0.00
2022-09-16T20:37:15.271Z,0.00
2022-09-16T20:38:15.291Z,0.00
2022-09-16T20:39:15.339Z,0.00
2022-09-16T20:40:15.431Z,0.00
2022-09-16T20:41:15.449Z,0.00
2022-09-16T20:42:15.516Z,0.00
2022-09-16T20:43:15.536Z,0.00
2022-09-16T20:44:15.757Z,0.00
2022-09-16T20:45:15.634Z,0.00
2022-09-16T20:46:15.723Z,0.00
2022-09-16T20:47:15.766Z,0.00
2022-09-16T20:48:15.798Z,0.00
2022-09-16T20:49:15.827Z,0.00
2022-09-16T20:50:15.881Z,0.00
2022-09-16T20:51:15.946Z,0.00
2022-09-16T20:52:15.999Z,0.00
2022-09-16T20:53:16.047Z,0.00
2022-09-16T20:54:16.066Z,0.00
2022-09-16T20:55:16.121Z,0.00
2022-09-16T20:56:16.165Z,0.00
2022-09-16T20:57:16.320Z,0.00
2022-09-16T20:58:16.255Z,0.00
2022-09-16T20:59:16.336Z,0.00
2022-09-16T21:00:16.353Z,0.00
2022-09-16T21:01:16.483Z,0.00
2022-09-16T21:02:16.573Z,0.00
2022-09-16T21:03:16.542Z,0.00
2022-09-16T21:04:16.553Z,0.00
2022-09-16T21:05:16.600Z,0.00
2022-09-16T21:06:16.669Z,0.00
2022-09-16T21:07:16.745Z,0.00
2022-09-16T21:08:16.755Z,0.00
2022-09-16T21:09:16.791Z,0.00
2022-09-16T21:10:16.841Z,0.00
2022-09-16T21:11:16.932Z,0.00
2022-09-16T21:12:17.069Z,0.00
2022-09-16T21:13:17.000Z,0.00
2022-09-16T21:14:17.044Z,0.00
2022-09-16T21:15:17.079Z,0.00
2022-09-16T21:16:17.165Z,0.00
2022-09-16T21:17:17.204Z,0.00
2022-09-16T21:18:17.292Z,0.00
2022-09-16T21:19:17.297Z,0.00
2022-09-16T21:20:17.314Z,0.00
2022-09-16T21:21:17.406Z,0.00
2022-09-16T21:22:17.482Z,0.00
2022-09-16T21:23:17.479Z,0.00
2022-09-16T21:24:17.527Z,0.00
2022-09-16T21:25:17.556Z,0.00
2022-09-16T21:26:17.630Z,0.00
2022-09-16T21:27:38.716Z,0.00
2022-09-16T21:28:17.707Z,0.00
2022-09-16T21:29:17.789Z,0.00
2022-09-16T21:30:17.815Z,0.00
2022-09-16T21:31:17.887Z,0.00
2022-09-16T21:32:17.896Z,0.00
2022-09-16T21:33:17.967Z,0.00
2022-09-16T21:34:17.991Z,0.00
2022-09-16T21:35:18.051Z,0.00
2022-09-16T21:36:18.093Z,0.00
2022-09-16T21:37:18.170Z,0.00
2022-09-16T21:38:18.185Z,0.00
2022-09-16T21:39:18.234Z,0.00
2022-09-16T21:40:18.340Z,0.00
2022-09-16T21:41:18.340Z,0.00
2022-09-16T21:42:18.400Z,0.00
2022-09-16T21:43:18.430Z,0.00
2022-09-16T21:44:18.474Z,0.00
2022-09-16T21:45:18.550Z,0.00
2022-09-16T21:46:18.623Z,0.00
2022-09-16T21:47:18.649Z,0.00
2022-09-16T21:48:18.665Z,0.00
2022-09-16T21:49:18.746Z,0.00
2022-09-16T21:50:18.764Z,0.00
2022-09-16T21:51:18.868Z,0.00
2022-09-16T21:52:18.861Z,0.00
2022-09-16T21:53:18.909Z,0.00
2022-09-16T21:54:20.375Z,0.00
2022-09-16T21:55:19.024Z,0.00
2022-09-16T21:56:19.056Z,0.00
2022-09-16T21:57:19.125Z,0.00
2022-09-16T21:58:19.152Z,0.00
2022-09-16T21:59:19.203Z,0.00
2022-09-16T22:00:19.240Z,0.00
2022-09-16T22:01:19.366Z,0.00
2022-09-16T22:02:19.415Z,0.00
2022-09-16T22:03:19.388Z,0.00
2022-09-16T22:04:19.434Z,0.00
2022-09-16T22:05:19.485Z,0.00
2022-09-16T22:06:19.531Z,0.00
2022-09-16T22:07:19.606Z,0.00
2022-09-16T22:08:19.632Z,0.00
2022-09-16T22:09:19.672Z,0.00
2022-09-16T22:10:19.721Z,0.00
2022-09-16T22:11:19.773Z,0.00
2022-09-16T22:12:19.846Z,0.00
2022-09-16T22:13:19.866Z,0.00
2022-09-16T22:14:19.914Z,0.00
2022-09-16T22:15:19.983Z,0.00
2022-09-16T22:16:20.076Z,0.00
2022-09-16T22:17:20.079Z,0.00
2022-09-16T22:18:20.104Z,0.00
2022-09-16T22:19:20.154Z,0.00
2022-09-16T22:20:20.229Z,0.00
2022-09-16T22:21:20.250Z,0.00
2022-09-16T22:22:20.311Z,0.00
2022-09-16T22:23:20.349Z,0.00
2022-09-16T22:24:20.547Z,0.00
2022-09-16T22:25:20.466Z,0.00
2022-09-16T22:26:20.493Z,0.00
2022-09-16T22:27:20.543Z,0.00
2022-09-16T22:28:20.585Z,0.00
2022-09-16T22:29:20.655Z,0.00
2022-09-16T22:30:20.709Z,0.00
2022-09-16T22:31:20.771Z,0.00
2022-09-16T22:32:20.772Z,0.00
2022-09-16T22:33:20.826Z,0.00
2022-09-16T22:34:20.875Z,0.00
2022-09-16T22:35:20.954Z,0.00
2022-09-16T22:36:20.975Z,0.00
2022-09-16T22:37:21.019Z,0.00
2022-09-16T22:38:21.078Z,0.00
2022-09-16T22:39:21.115Z,0.00
2022-09-16T22:40:21.262Z,0.00
2022-09-16T22:41:21.216Z,0.00
2022-09-16T22:42:21.260Z,0.00
2022-09-16T22:43:21.310Z,0.00
2022-09-16T22:44:21.380Z,0.00
2022-09-16T22:45:21.407Z,0.00
2022-09-16T22:46:21.497Z,0.00
2022-09-16T22:47:21.533Z,0.00
2022-09-16T22:48:21.546Z,0.00
2022-09-16T22:49:21.627Z,0.00
2022-09-16T22:50:21.638Z,0.00
2022-09-16T22:51:21.716Z,0.00
2022-09-16T22:52:21.740Z,0.00
2022-09-16T22:53:21.790Z,0.00
2022-09-16T22:54:21.834Z,0.00
2022-09-16T22:55:21.882Z,0.00
2022-09-16T22:56:21.962Z,0.00
2022-09-16T22:57:21.979Z,0.00
2022-09-16T22:58:22.028Z,0.00
2022-09-16T22:59:22.075Z,0.00
2022-09-16T23:00:22.155Z,0.00
2022-09-16T23:01:22.195Z,0.00
2022-09-16T23:02:22.222Z,0.00
2022-09-16T23:03:22.265Z,0.00
2022-09-16T23:04:22.377Z,0.00
2022-09-16T23:05:22.386Z,0.00
2022-09-16T23:06:22.411Z,0.00
2022-09-16T23:07:22.490Z,0.00
2022-09-16T23:08:22.530Z,0.00
2022-09-16T23:09:22.552Z,0.00
2022-09-16T23:10:22.602Z,0.00
2022-09-16T23:11:22.650Z,0.00
2022-09-16T23:12:22.726Z,0.00
2022-09-16T23:13:22.744Z,0.00
2022-09-16T23:14:22.795Z,0.00
2022-09-16T23:15:22.840Z,0.00
2022-09-16T23:16:22.987Z,0.00
2022-09-16T23:17:22.977Z,0.00
2022-09-16T23:18:22.983Z,0.00
2022-09-16T23:19:23.035Z,0.00
2022-09-16T23:20:23.079Z,0.00
2022-09-16T23:21:23.150Z,0.00
2022-09-16T23:22:23.206Z,0.00
2022-09-16T23:23:23.227Z,0.00
2022-09-16T23:24:23.271Z,0.00
2022-09-16T23:25:23.327Z,0.00
2022-09-16T23:26:23.370Z,0.00
2022-09-16T23:27:23.438Z,0.00
2022-09-16T23:28:23.466Z,0.00
2022-09-16T23:29:23.514Z,0.00
2022-09-16T23:30:23.562Z,0.00
2022-09-16T23:31:23.648Z,0.00
2022-09-16T23:32:23.683Z,0.00
2022-09-16T23:33:23.707Z,0.00
2022-09-16T23:34:30.587Z,0.00
2022-09-16T23:35:23.804Z,0.00
2022-09-16T23:36:23.847Z,0.00
2022-09-16T23:37:23.899Z,0.00
2022-09-16T23:38:23.952Z,0.00
2022-09-16T23:39:24.019Z,0.00
2022-09-16T23:40:24.075Z,0.00
2022-09-16T23:41:24.087Z,0.00
2022-09-16T23:42:24.138Z,0.00
2022-09-16T23:43:24.181Z,0.00
2022-09-16T23:44:24.252Z,0.00
2022-09-16T23:45:24.299Z,0.00
2022-09-16T23:46:24.380Z,0.00
2022-09-16T23:47:24.401Z,0.00
2022-09-16T23:48:24.424Z,0.00
2022-09-16T23:49:24.473Z,0.00
2022-09-16T23:50:24.519Z,0.00
2022-09-16T23:51:27.978Z,0.00
2022-09-16T23:52:24.640Z,0.00
2022-09-16T23:53:24.666Z,0.00
2022-09-16T23:54:24.716Z,0.00
2022-09-16T23:55:24.759Z,0.00
2022-09-16T23:56:24.807Z,0.00
2022-09-16T23:57:24.884Z,0.00
2022-09-16T23:58:24.941Z,0.00
2022-09-16T23:59:24.944Z,0.00
